Hauptseite
METAR-TAF:

METAR-TAF

Flughäfen :

Flughafen al-Arisch

Al-Arisch, Ägypten

Breite: 31-05N, Länge: 033-49E, Höhe: 31 m

METAR: fehlend

Zeit: 01:25 (23:25 UTC)

Prognose

Neuester Wetterbericht von vor 6 Stunden und 25 Minuten, um 17:00 UTC
Gültige Prognose vom 25 um 18 UTC bis 26 um 24 UTC
Wind 3 kt aus unterschiedlichen Richtungen
Sichtweite 10 km oder mehr
Aufgelockert bewölkt in der Höhe von 2000 ft
Übergehend zu
vom 26 um 06 UTC bis 26 um 08 UTC
Wind 8 kt aus Nord/Nordwest
Übergehend zu
vom 26 um 16 UTC bis 26 um 18 UTC
Wind 3 kt aus unterschiedlichen Richtungen

TAF: HEAR 251700Z 2518/2624 VRB03KT 9999 SCT020 BECMG 2606/2608 34008KT BECMG 2616/2618 VRB03KT

Wetterbeobachtungen und Prognosen von mehr als 4000 Flughäfen (METAR und TAF Bericht).

Die verfügbaren Stationen werden durch gelbe und rote Markierungen auf der Karte dargestellt.

Führen Sie die Maus auf sie, um den Namen der Station zu sehen.

Darauf klicken, um die Beobachtung von Wetterbeobachtungen und Prognosen zu sehen.

Um die Karte zu ändern : klicken Sie auf den grünen Tasten mit einem schwarzen Kreuz Zum Vergrößern, auf den grünen Button mit einem Gedankenstrich zu verkleinern, oder auf die grünen Pfeile für benachbarte Karten.


METAR-TAF: